createdAt,value
2018-09-30T00:02:18.170Z,61.40
2018-09-30T00:04:48.142Z,61.40
2018-09-30T00:07:18.074Z,61.40
2018-09-30T00:09:48.053Z,61.40
2018-09-30T00:12:17.983Z,61.50
2018-09-30T00:14:47.957Z,61.40
2018-09-30T00:17:18.111Z,61.60
2018-09-30T00:19:50.875Z,61.10
2018-09-30T00:22:20.846Z,61.30
2018-09-30T00:24:56.215Z,61.40
2018-09-30T00:27:26.266Z,61.40
2018-09-30T00:29:56.198Z,61.30
2018-09-30T00:32:26.166Z,61.10
2018-09-30T00:34:56.248Z,61.30
2018-09-30T00:37:26.165Z,61.20
2018-09-30T00:39:56.164Z,61.30
2018-09-30T00:42:26.127Z,61.30
2018-09-30T00:44:56.051Z,61.30
2018-09-30T00:47:26.139Z,61.40
2018-09-30T00:49:56.142Z,61.40
2018-09-30T00:52:26.054Z,61.50
2018-09-30T00:54:56.020Z,61.70
2018-09-30T00:57:25.982Z,61.60
2018-09-30T00:59:55.924Z,61.50
2018-09-30T01:02:25.881Z,61.60
2018-09-30T01:04:55.981Z,61.80
2018-09-30T01:07:25.907Z,62.10
2018-09-30T01:09:55.839Z,62.50
2018-09-30T01:12:26.062Z,62.40
2018-09-30T01:14:56.131Z,63.00
2018-09-30T01:17:26.098Z,64.40
2018-09-30T01:19:56.014Z,64.40
2018-09-30T01:22:25.954Z,64.20
2018-09-30T01:24:55.871Z,64.40
2018-09-30T01:27:32.489Z,64.70
2018-09-30T01:30:02.592Z,65.80
2018-09-30T01:32:32.522Z,65.70
2018-09-30T01:35:02.468Z,65.60
2018-09-30T01:37:32.468Z,65.40
2018-09-30T01:40:02.394Z,65.50
2018-09-30T01:42:32.355Z,66.30
2018-09-30T01:45:02.303Z,66.60
2018-09-30T01:47:32.262Z,66.20
2018-09-30T01:50:02.186Z,65.90
2018-09-30T01:52:51.680Z,66.50
2018-09-30T01:55:22.169Z,65.90
2018-09-30T01:57:52.240Z,66.40
2018-09-30T02:00:22.655Z,66.20
2018-09-30T02:02:52.783Z,65.60
2018-09-30T02:05:22.774Z,65.20
2018-09-30T02:07:52.725Z,65.70
2018-09-30T02:10:22.690Z,65.80
2018-09-30T02:12:52.657Z,66.40
2018-09-30T02:15:22.585Z,67.90
2018-09-30T02:17:52.603Z,67.60
2018-09-30T02:20:22.539Z,67.30
2018-09-30T02:22:52.518Z,67.40
2018-09-30T02:25:22.810Z,66.90
2018-09-30T02:27:52.746Z,67.00
2018-09-30T02:30:22.731Z,67.00
2018-09-30T02:32:52.713Z,67.10
2018-09-30T02:35:22.638Z,66.80
2018-09-30T02:37:52.630Z,67.20
2018-09-30T02:40:22.922Z,67.20
2018-09-30T02:42:52.886Z,66.70
2018-09-30T02:45:23.032Z,66.30
2018-09-30T02:47:52.962Z,66.80
2018-09-30T02:50:23.254Z,67.40
2018-09-30T02:52:53.181Z,67.90
2018-09-30T02:55:23.170Z,69.00
2018-09-30T02:57:53.143Z,68.80
2018-09-30T03:00:23.110Z,69.00
2018-09-30T03:02:53.398Z,69.80
2018-09-30T03:05:23.387Z,69.70
2018-09-30T03:07:58.672Z,69.80
2018-09-30T03:10:28.634Z,69.90
2018-09-30T03:12:58.795Z,70.70
2018-09-30T03:15:29.005Z,71.20
2018-09-30T03:17:58.944Z,70.70
2018-09-30T03:20:28.928Z,70.80
2018-09-30T03:22:59.779Z,70.40
2018-09-30T03:25:29.730Z,70.50
2018-09-30T03:27:59.658Z,69.70
2018-09-30T03:30:29.578Z,69.60
2018-09-30T03:32:59.591Z,69.60
2018-09-30T03:35:29.539Z,69.70
2018-09-30T03:38:00.203Z,69.60
2018-09-30T03:40:30.287Z,69.50
2018-09-30T03:43:00.249Z,69.70
2018-09-30T03:45:30.587Z,70.40
2018-09-30T03:48:00.542Z,71.20
2018-09-30T03:50:30.510Z,71.30
2018-09-30T03:53:00.447Z,71.30
2018-09-30T03:55:30.385Z,71.40
2018-09-30T03:58:00.346Z,71.40
2018-09-30T04:00:30.314Z,71.50
2018-09-30T04:03:00.362Z,71.40
2018-09-30T04:05:30.307Z,71.20
2018-09-30T04:08:00.572Z,71.00
2018-09-30T04:10:30.535Z,70.90
2018-09-30T04:13:00.461Z,70.80
2018-09-30T04:15:30.394Z,70.80
2018-09-30T04:18:00.315Z,70.80
2018-09-30T04:20:30.326Z,70.60
2018-09-30T04:23:00.218Z,70.80
2018-09-30T04:25:30.143Z,70.80
2018-09-30T04:28:00.069Z,70.80
2018-09-30T04:30:29.982Z,70.80
2018-09-30T04:32:59.921Z,70.80
2018-09-30T04:35:30.900Z,70.70
2018-09-30T04:38:00.819Z,70.70
2018-09-30T04:40:31.090Z,70.70
2018-09-30T04:43:00.982Z,70.70
2018-09-30T04:45:31.214Z,70.70
2018-09-30T04:48:01.159Z,70.50
2018-09-30T04:50:31.257Z,70.30
2018-09-30T04:53:01.295Z,70.00
2018-09-30T04:55:31.238Z,70.00
2018-09-30T04:58:01.158Z,69.60
2018-09-30T05:00:31.204Z,70.10
2018-09-30T05:03:01.140Z,69.60
2018-09-30T05:05:31.474Z,69.30
2018-09-30T05:08:01.562Z,69.00
2018-09-30T05:10:31.521Z,69.10
2018-09-30T05:13:01.441Z,68.80
2018-09-30T05:15:31.325Z,68.50
2018-09-30T05:18:01.412Z,68.60
2018-09-30T05:20:31.562Z,68.40
2018-09-30T05:23:01.821Z,68.80
2018-09-30T05:25:31.765Z,68.70
2018-09-30T05:28:01.673Z,68.50
2018-09-30T05:30:31.574Z,68.00
2018-09-30T05:33:01.607Z,67.80
2018-09-30T05:35:31.623Z,67.90
2018-09-30T05:38:01.642Z,67.80
2018-09-30T05:40:32.094Z,67.60
2018-09-30T05:43:02.158Z,67.40
2018-09-30T05:45:32.203Z,67.20
2018-09-30T05:48:02.111Z,67.00
2018-09-30T05:50:32.134Z,66.30
2018-09-30T05:53:02.050Z,66.10
2018-09-30T05:55:31.982Z,66.90
2018-09-30T05:58:02.234Z,67.00
2018-09-30T06:00:32.241Z,66.90
2018-09-30T06:03:02.237Z,66.60
2018-09-30T06:05:32.166Z,66.30
2018-09-30T06:08:02.081Z,66.40
2018-09-30T06:10:32.290Z,66.50
2018-09-30T06:13:02.197Z,65.90
2018-09-30T06:15:32.193Z,65.60
2018-09-30T06:18:02.606Z,64.10
2018-09-30T06:20:32.599Z,63.80
2018-09-30T06:23:02.486Z,63.20
2018-09-30T06:25:32.394Z,62.10
2018-09-30T06:28:02.345Z,62.10
2018-09-30T06:30:32.287Z,61.20
2018-09-30T06:33:02.614Z,60.70
2018-09-30T06:35:32.491Z,60.30
2018-09-30T06:38:02.421Z,59.60
2018-09-30T06:40:32.435Z,59.10
2018-09-30T06:43:02.317Z,58.80
2018-09-30T06:45:32.372Z,58.10
2018-09-30T06:48:02.785Z,58.10
2018-09-30T06:50:33.110Z,56.90
2018-09-30T06:53:03.270Z,57.30
2018-09-30T06:55:33.247Z,56.50
2018-09-30T06:58:03.272Z,57.60
2018-09-30T07:00:33.355Z,56.80
2018-09-30T07:03:03.270Z,56.50
2018-09-30T07:05:33.201Z,55.60
2018-09-30T07:08:03.082Z,55.60
2018-09-30T07:10:33.310Z,55.60
2018-09-30T07:13:03.259Z,54.50
2018-09-30T07:15:33.293Z,54.70
2018-09-30T07:18:03.193Z,53.60
2018-09-30T07:20:33.219Z,53.00
2018-09-30T07:23:03.133Z,53.10
2018-09-30T07:25:33.078Z,52.00
2018-09-30T07:28:03.046Z,52.00
2018-09-30T07:30:32.938Z,51.50
2018-09-30T07:33:02.911Z,50.90
2018-09-30T07:35:32.929Z,51.00
2018-09-30T07:38:02.842Z,51.10
2018-09-30T07:40:32.905Z,50.00
2018-09-30T07:43:03.181Z,49.30
2018-09-30T07:45:33.142Z,48.90
2018-09-30T07:48:03.399Z,48.60
2018-09-30T07:50:34.050Z,48.30
2018-09-30T07:53:03.976Z,48.30
2018-09-30T07:55:33.901Z,47.30
2018-09-30T07:58:03.841Z,47.10
2018-09-30T08:00:33.828Z,46.80
2018-09-30T08:03:03.786Z,46.70
2018-09-30T08:05:33.849Z,45.40
2018-09-30T08:08:05.290Z,44.90
2018-09-30T08:10:35.333Z,44.10
2018-09-30T08:13:05.277Z,43.40
2018-09-30T08:15:35.277Z,43.30
2018-09-30T08:18:05.453Z,42.70
2018-09-30T08:20:35.379Z,42.90
2018-09-30T08:23:05.377Z,43.00
2018-09-30T08:25:36.402Z,42.10
2018-09-30T08:28:06.704Z,42.20
2018-09-30T08:30:36.705Z,40.60
2018-09-30T08:33:06.643Z,40.10
2018-09-30T08:35:36.526Z,39.80
2018-09-30T08:38:12.074Z,39.80
2018-09-30T08:40:47.618Z,39.10
2018-09-30T08:43:17.590Z,39.30
2018-09-30T08:45:47.561Z,39.40
2018-09-30T08:48:17.557Z,39.60
2018-09-30T08:50:47.469Z,38.90
2018-09-30T08:53:18.290Z,38.10
2018-09-30T08:55:48.500Z,38.20
2018-09-30T08:58:18.758Z,37.60
2018-09-30T09:00:48.690Z,36.90
2018-09-30T09:03:18.948Z,36.50
2018-09-30T09:05:48.985Z,36.50
2018-09-30T09:08:18.930Z,35.90
2018-09-30T09:10:48.916Z,35.80
2018-09-30T09:13:18.859Z,35.80
2018-09-30T09:15:48.814Z,36.30
2018-09-30T09:18:18.728Z,36.00
2018-09-30T09:20:48.767Z,35.70
2018-09-30T09:23:18.753Z,35.00
2018-09-30T09:25:48.708Z,35.10
2018-09-30T09:28:18.711Z,34.50
2018-09-30T09:30:49.003Z,33.30
2018-09-30T09:33:18.914Z,33.90
2018-09-30T09:35:48.866Z,33.40
2018-09-30T09:38:19.272Z,33.00
2018-09-30T09:40:49.190Z,33.00
2018-09-30T09:43:19.371Z,33.40
2018-09-30T09:45:49.611Z,32.90
2018-09-30T09:48:19.535Z,32.20
2018-09-30T09:50:49.465Z,32.30
2018-09-30T09:53:19.425Z,32.00
2018-09-30T09:55:49.385Z,31.80
2018-09-30T09:58:19.346Z,32.50
2018-09-30T10:00:49.647Z,32.40
2018-09-30T10:03:19.612Z,32.00
2018-09-30T10:05:50.010Z,31.80
2018-09-30T10:08:20.189Z,31.80
2018-09-30T10:10:50.266Z,30.60
2018-09-30T10:13:20.339Z,31.30
2018-09-30T10:15:50.589Z,30.30
2018-09-30T10:18:20.973Z,30.40
2018-09-30T10:20:50.925Z,30.70
2018-09-30T10:23:20.855Z,30.60
2018-09-30T10:25:50.746Z,30.20
2018-09-30T10:28:20.689Z,30.50
2018-09-30T10:30:50.702Z,30.00
2018-09-30T10:33:20.771Z,29.80
2018-09-30T10:35:50.703Z,29.40
2018-09-30T10:38:20.632Z,30.00
2018-09-30T10:40:50.629Z,30.70
2018-09-30T10:43:20.601Z,29.40
2018-09-30T10:45:50.565Z,29.90
2018-09-30T10:48:20.543Z,30.60
2018-09-30T10:50:50.546Z,30.30
2018-09-30T10:53:20.931Z,29.00
2018-09-30T10:55:50.872Z,29.00
2018-09-30T10:58:20.765Z,29.00
2018-09-30T11:00:50.766Z,28.90
2018-09-30T11:03:20.735Z,28.70
2018-09-30T11:05:50.793Z,28.70
2018-09-30T11:08:20.719Z,29.10
2018-09-30T11:10:50.679Z,29.60
2018-09-30T11:13:20.677Z,28.20
2018-09-30T11:15:50.788Z,28.20
2018-09-30T11:18:20.689Z,28.10
2018-09-30T11:20:50.619Z,28.60
2018-09-30T11:23:20.529Z,29.00
2018-09-30T11:25:50.536Z,28.10
2018-09-30T11:28:20.430Z,28.10
2018-09-30T11:30:50.374Z,28.00
2018-09-30T11:33:20.418Z,27.50
2018-09-30T11:35:50.308Z,27.40
2018-09-30T11:38:20.261Z,28.00
2018-09-30T11:40:50.261Z,27.80
2018-09-30T11:43:20.243Z,28.00
2018-09-30T11:45:50.285Z,27.90
2018-09-30T11:48:20.234Z,27.60
2018-09-30T11:50:56.957Z,27.60
2018-09-30T11:53:27.159Z,27.70
2018-09-30T11:55:57.178Z,27.50
2018-09-30T11:58:27.167Z,27.80
2018-09-30T12:00:57.193Z,27.80
2018-09-30T12:03:27.163Z,28.00
2018-09-30T12:05:57.129Z,28.00
2018-09-30T12:08:27.049Z,27.60
2018-09-30T12:10:57.156Z,26.90
2018-09-30T12:13:27.393Z,27.20
2018-09-30T12:15:57.506Z,27.40
2018-09-30T12:18:27.477Z,27.10
2018-09-30T12:20:58.025Z,27.10
2018-09-30T12:23:28.162Z,27.20
2018-09-30T12:25:58.173Z,26.50
2018-09-30T12:28:28.160Z,26.80
2018-09-30T12:30:58.233Z,27.30
2018-09-30T12:33:28.207Z,27.10
2018-09-30T12:35:58.700Z,27.10
2018-09-30T12:38:35.485Z,26.30
2018-09-30T12:41:05.570Z,26.60
2018-09-30T12:43:35.605Z,27.30
2018-09-30T12:46:05.587Z,27.50
2018-09-30T12:48:35.621Z,26.40
2018-09-30T12:51:05.762Z,26.40
2018-09-30T12:53:35.877Z,26.10
2018-09-30T12:56:05.825Z,26.10
2018-09-30T12:58:35.774Z,27.10
2018-09-30T13:01:05.781Z,27.00
2018-09-30T13:03:35.785Z,27.40
2018-09-30T13:06:05.938Z,26.70
2018-09-30T13:08:35.908Z,27.10
2018-09-30T13:11:05.863Z,26.20
2018-09-30T13:13:35.818Z,26.90
2018-09-30T13:16:05.830Z,26.90
2018-09-30T13:18:35.820Z,26.10
2018-09-30T13:21:05.882Z,26.00
2018-09-30T13:23:35.926Z,26.20
2018-09-30T13:26:05.937Z,26.10
2018-09-30T13:28:35.906Z,26.50
2018-09-30T13:31:05.852Z,26.10
2018-09-30T13:33:35.791Z,26.10
2018-09-30T13:36:05.949Z,26.10
2018-09-30T13:38:36.020Z,26.10
2018-09-30T13:41:06.088Z,26.10
2018-09-30T13:43:35.915Z,26.00
2018-09-30T13:46:06.009Z,25.90
2018-09-30T13:48:35.849Z,26.40
2018-09-30T13:51:06.115Z,26.00
2018-09-30T13:53:35.997Z,26.00
2018-09-30T13:56:05.925Z,25.90
2018-09-30T13:58:35.851Z,25.90
2018-09-30T14:01:05.814Z,25.90
2018-09-30T14:03:35.764Z,25.90
2018-09-30T14:06:05.726Z,25.60
2018-09-30T14:08:35.715Z,25.80
2018-09-30T14:11:05.725Z,26.80
2018-09-30T14:13:35.881Z,26.20
2018-09-30T14:16:05.793Z,25.90
2018-09-30T14:18:35.739Z,25.70
2018-09-30T14:21:05.903Z,25.70
2018-09-30T14:23:36.327Z,25.70
2018-09-30T14:26:06.622Z,25.60
2018-09-30T14:28:36.571Z,25.60
2018-09-30T14:31:06.806Z,25.50
2018-09-30T14:33:36.823Z,25.70
2018-09-30T14:36:06.740Z,25.50
2018-09-30T14:38:36.733Z,25.40
2018-09-30T14:41:06.786Z,25.30
2018-09-30T14:43:36.894Z,25.60
2018-09-30T14:46:07.065Z,25.30
2018-09-30T14:48:37.606Z,25.40
2018-09-30T14:51:07.802Z,26.00
2018-09-30T14:53:37.859Z,25.20
2018-09-30T14:56:08.024Z,25.20
2018-09-30T14:58:37.975Z,25.70
2018-09-30T15:01:08.039Z,25.10
2018-09-30T15:03:38.275Z,25.80
2018-09-30T15:06:09.251Z,25.50
2018-09-30T15:08:39.317Z,25.90
2018-09-30T15:11:09.271Z,25.90
2018-09-30T15:13:39.239Z,26.20
2018-09-30T15:16:09.196Z,26.40
2018-09-30T15:18:39.185Z,26.50
2018-09-30T15:21:09.124Z,26.50
2018-09-30T15:23:39.464Z,26.30
2018-09-30T15:26:09.431Z,26.30
2018-09-30T15:28:39.399Z,26.70
2018-09-30T15:31:09.319Z,26.90
2018-09-30T15:33:39.304Z,26.70
2018-09-30T15:36:09.329Z,26.90
2018-09-30T15:38:39.335Z,26.80
2018-09-30T15:41:09.633Z,27.10
2018-09-30T15:43:39.598Z,27.50
2018-09-30T15:46:09.830Z,27.80
2018-09-30T15:48:39.751Z,27.20
2018-09-30T15:51:09.906Z,27.00
2018-09-30T15:53:39.888Z,27.10
2018-09-30T15:56:10.014Z,27.50
2018-09-30T15:58:39.990Z,27.20
2018-09-30T16:01:09.917Z,28.10
2018-09-30T16:03:39.962Z,27.80
2018-09-30T16:06:09.946Z,28.00
2018-09-30T16:08:39.960Z,28.50
2018-09-30T16:11:09.916Z,28.90
2018-09-30T16:13:39.848Z,28.70
2018-09-30T16:16:09.857Z,29.60
2018-09-30T16:18:39.781Z,29.20
2018-09-30T16:21:09.901Z,29.60
2018-09-30T16:23:39.798Z,29.60
2018-09-30T16:26:09.838Z,30.00
2018-09-30T16:28:39.977Z,29.90
2018-09-30T16:31:10.055Z,30.60
2018-09-30T16:33:39.954Z,30.50
2018-09-30T16:36:10.007Z,30.90
2018-09-30T16:38:39.983Z,31.70
2018-09-30T16:41:10.163Z,30.90
2018-09-30T16:43:40.176Z,30.90
2018-09-30T16:46:10.262Z,30.70
2018-09-30T16:48:40.320Z,30.70
2018-09-30T16:51:10.258Z,30.70
2018-09-30T16:53:40.294Z,30.60
2018-09-30T16:56:10.271Z,30.50
2018-09-30T16:58:40.219Z,31.40
2018-09-30T17:01:10.231Z,31.80
2018-09-30T17:03:40.223Z,31.80
2018-09-30T17:06:10.158Z,31.90
2018-09-30T17:08:40.178Z,31.80
2018-09-30T17:11:10.166Z,32.00
2018-09-30T17:13:40.154Z,32.40
2018-09-30T17:16:10.266Z,33.30
2018-09-30T17:18:40.083Z,34.60
2018-09-30T17:21:10.202Z,34.60
2018-09-30T17:23:40.245Z,36.30
2018-09-30T17:26:10.523Z,36.50
2018-09-30T17:28:40.502Z,38.90
2018-09-30T17:31:10.483Z,38.90
2018-09-30T17:33:40.515Z,39.70
2018-09-30T17:36:10.519Z,41.00
2018-09-30T17:38:40.554Z,42.50
2018-09-30T17:41:10.716Z,41.80
2018-09-30T17:43:40.712Z,41.70
2018-09-30T17:46:11.194Z,42.30
2018-09-30T17:48:41.234Z,42.00
2018-09-30T17:51:11.527Z,42.20
2018-09-30T17:53:41.430Z,41.40
2018-09-30T17:56:14.818Z,40.90
2018-09-30T17:58:44.906Z,40.30
2018-09-30T18:01:14.902Z,41.20
2018-09-30T18:03:44.884Z,41.90
2018-09-30T18:06:15.317Z,42.30
2018-09-30T18:08:45.458Z,42.60
2018-09-30T18:11:15.553Z,42.60
2018-09-30T18:13:45.483Z,43.40
2018-09-30T18:16:15.549Z,42.20
2018-09-30T18:18:45.506Z,44.10
2018-09-30T18:21:15.528Z,43.00
2018-09-30T18:23:45.440Z,42.40
2018-09-30T18:26:15.403Z,43.80
2018-09-30T18:28:45.350Z,44.00
2018-09-30T18:31:15.321Z,45.70
2018-09-30T18:33:45.302Z,46.30
2018-09-30T18:36:15.855Z,46.70
2018-09-30T18:38:45.787Z,47.60
2018-09-30T18:41:15.806Z,47.50
2018-09-30T18:43:45.792Z,48.40
2018-09-30T18:46:15.817Z,49.20
2018-09-30T18:48:45.747Z,49.80
2018-09-30T18:51:15.790Z,50.30
2018-09-30T18:53:45.723Z,50.90
2018-09-30T18:56:15.705Z,51.20
2018-09-30T18:58:45.671Z,51.00
2018-09-30T19:01:15.611Z,50.80
2018-09-30T19:03:45.719Z,50.90
2018-09-30T19:06:15.754Z,51.10
2018-09-30T19:08:45.678Z,51.20
2018-09-30T19:11:15.781Z,51.50
2018-09-30T19:13:45.784Z,51.50
2018-09-30T19:16:15.810Z,51.40
2018-09-30T19:18:45.765Z,51.40
2018-09-30T19:21:15.695Z,51.40
2018-09-30T19:23:45.782Z,51.40
2018-09-30T19:26:15.877Z,51.30
2018-09-30T19:28:45.795Z,51.90
2018-09-30T19:31:15.744Z,52.60
2018-09-30T19:33:45.795Z,53.00
2018-09-30T19:36:15.849Z,53.30
2018-09-30T19:38:45.801Z,53.10
2018-09-30T19:41:15.863Z,53.70
2018-09-30T19:43:45.888Z,54.00
2018-09-30T19:46:15.995Z,54.60
2018-09-30T19:48:45.989Z,55.20
2018-09-30T19:51:16.087Z,55.10
2018-09-30T19:53:46.024Z,55.30
2018-09-30T19:56:16.008Z,55.10
2018-09-30T19:58:45.926Z,55.70
2018-09-30T20:01:15.926Z,56.10
2018-09-30T20:03:45.896Z,56.30
2018-09-30T20:06:15.952Z,56.80
2018-09-30T20:08:45.985Z,56.10
2018-09-30T20:11:15.958Z,56.10
2018-09-30T20:13:45.936Z,55.80
2018-09-30T20:16:16.218Z,55.10
2018-09-30T20:18:46.345Z,55.20
2018-09-30T20:21:16.412Z,55.00
2018-09-30T20:23:46.439Z,55.80
2018-09-30T20:26:16.437Z,56.50
2018-09-30T20:28:46.592Z,56.90
2018-09-30T20:31:16.537Z,57.80
2018-09-30T20:33:46.535Z,58.50
2018-09-30T20:36:16.540Z,57.80
2018-09-30T20:38:46.528Z,57.90
2018-09-30T20:41:16.538Z,57.70
2018-09-30T20:43:46.577Z,57.50
2018-09-30T20:46:16.558Z,57.50
2018-09-30T20:48:46.581Z,57.50
2018-09-30T20:51:16.619Z,57.70
2018-09-30T20:53:46.559Z,57.70
2018-09-30T20:56:16.577Z,57.70
2018-09-30T20:58:46.630Z,57.70
2018-09-30T21:01:16.713Z,57.90
2018-09-30T21:03:46.854Z,58.00
2018-09-30T21:06:25.690Z,58.90
2018-09-30T21:08:55.903Z,58.70
2018-09-30T21:11:26.231Z,58.70
2018-09-30T21:13:56.602Z,58.70
2018-09-30T21:16:26.710Z,59.20
2018-09-30T21:18:56.769Z,59.70
2018-09-30T21:21:26.822Z,59.50
2018-09-30T21:23:56.805Z,59.50
2018-09-30T21:26:26.818Z,59.60
2018-09-30T21:28:56.754Z,59.60
2018-09-30T21:31:26.867Z,59.70
2018-09-30T21:33:56.839Z,59.70
2018-09-30T21:36:26.807Z,59.80
2018-09-30T21:38:56.794Z,60.10
2018-09-30T21:41:26.961Z,60.00
2018-09-30T21:43:57.375Z,60.00
2018-09-30T21:46:27.366Z,60.20
2018-09-30T21:48:57.378Z,60.60
2018-09-30T21:51:27.333Z,61.10
2018-09-30T21:53:57.329Z,61.20
2018-09-30T21:56:27.385Z,61.50
2018-09-30T21:58:57.467Z,61.50
2018-09-30T22:01:27.511Z,61.20
2018-09-30T22:03:57.403Z,61.00
2018-09-30T22:06:27.424Z,60.70
2018-09-30T22:08:57.394Z,60.50
2018-09-30T22:11:27.367Z,60.40
2018-09-30T22:13:57.330Z,60.60
2018-09-30T22:16:27.382Z,61.00
2018-09-30T22:18:57.320Z,61.80
2018-09-30T22:21:27.287Z,62.20
2018-09-30T22:23:57.285Z,62.40
2018-09-30T22:26:27.243Z,62.60
2018-09-30T22:28:57.359Z,62.60
2018-09-30T22:31:27.286Z,62.50
2018-09-30T22:33:57.206Z,62.40
2018-09-30T22:36:27.131Z,62.80
2018-09-30T22:38:57.113Z,62.70
2018-09-30T22:41:27.112Z,63.30
2018-09-30T22:43:57.069Z,62.60
2018-09-30T22:46:27.049Z,62.70
2018-09-30T22:48:57.085Z,62.70
2018-09-30T22:51:27.204Z,63.40
2018-09-30T22:53:57.179Z,62.60
2018-09-30T22:56:27.134Z,62.60
2018-09-30T22:58:57.274Z,62.60
2018-09-30T23:01:27.386Z,62.40
2018-09-30T23:03:57.487Z,62.60
2018-09-30T23:06:27.476Z,62.80
2018-09-30T23:08:57.396Z,62.90
2018-09-30T23:11:27.560Z,62.60
2018-09-30T23:13:57.586Z,62.40
2018-09-30T23:16:27.897Z,63.10
2018-09-30T23:18:57.902Z,62.90
2018-09-30T23:21:27.965Z,62.90
2018-09-30T23:23:57.933Z,63.10
2018-09-30T23:26:28.005Z,62.80
2018-09-30T23:28:57.994Z,62.90
2018-09-30T23:31:27.963Z,62.70
2018-09-30T23:33:57.942Z,62.30
2018-09-30T23:36:28.132Z,62.40
2018-09-30T23:38:58.547Z,62.40
2018-09-30T23:41:28.633Z,62.30
2018-09-30T23:43:58.613Z,62.20
2018-09-30T23:46:28.607Z,61.60
2018-09-30T23:48:58.715Z,61.40
2018-09-30T23:51:28.654Z,61.60
2018-09-30T23:53:58.590Z,61.60
2018-09-30T23:56:28.579Z,61.50
2018-09-30T23:58:58.501Z,61.30
